Time;durP1;ratioP1;P1;durP2;ratioP2;P2;SDS_P1;SDS_P2;PMS_P1;PMS_P2;Temp;Humidity;BMP_temperature;BMP_pressure;BME280_temperature;BME280_humidity;BME280_pressure;Samples;Min_cycle;Max_cycle;Signal;HPM_P1;HPM_P2
2021/10/27 00:02:17;;;;;;;;;;;;;;;;;;5096021;28;19912;-83
2021/10/27 00:04:43;;;;;;;;;;;;;;;;;;5096237;28;19912;-81
2021/10/27 00:07:08;;;;;;;;;;;;;;;;;;5096307;28;19962;-83
2021/10/27 00:09:33;;;;;;;;;;;;;;;;;;5096421;28;19912;-82
2021/10/27 00:11:58;;;;;;;;;;;;;;;;;;5095328;28;19916;-83
2021/10/27 00:14:24;;;;;;;;;;;;;;;;;;5095948;28;19916;-82
2021/10/27 00:16:49;;;;;;;;;;;;;;;;;;5096209;28;19912;-83
2021/10/27 00:19:14;;;;;;;;;;;;;;;;;;5095194;28;19912;-83
2021/10/27 00:21:39;;;;;;;;;;;;;;;;;;5095315;28;19923;-83
2021/10/27 00:24:05;;;;;;;;;;;;;;;;;;5096568;28;19920;-83
2021/10/27 00:26:30;;;;;;;;;;;;;;;;;;5096144;28;19912;-83
2021/10/27 00:28:55;;;;;;;;;;;;;;;;;;5097370;28;19912;-83
2021/10/27 00:31:21;;;;;;;;;;;;;;;;;;5098174;28;19970;-83
2021/10/27 00:33:46;;;;;;;;;;;;;;;;;;5114394;28;19919;-82
2021/10/27 00:36:11;;;;;;;;;;;;;;;;;;5119626;28;19911;-83
2021/10/27 00:38:37;;;;;;;;;;;;;;;;;;5114626;28;20354;-83
2021/10/27 00:41:05;;;;;;;;;;;;;;;;;;5096535;28;20082;-82
2021/10/27 00:43:30;;;;;;;;;;;;;;;;;;5095289;28;19955;-82
2021/10/27 00:45:55;;;;;;;;;;;;;;;;;;5095902;28;19912;-83
2021/10/27 00:48:21;;;;;;;;;;;;;;;;;;5094968;28;20231;-83
2021/10/27 00:50:46;;;;;;;;;;;;;;;;;;5095260;28;19939;-83
2021/10/27 00:53:11;;;;;;;;;;;;;;;;;;5096217;28;19977;-82
2021/10/27 00:55:38;;;;;;;;;;;;;;;;;;5095969;28;19916;-83
2021/10/27 00:58:03;;;;;;;;;;;;;;;;;;5096032;28;19919;-82
2021/10/27 01:00:28;;;;;;;;;;;;;;;;;;5095883;28;19912;-82
2021/10/27 01:02:54;;;;;;;;;;;;;;;;;;5096309;28;19912;-83
2021/10/27 01:05:20;;;;;;;;;;;;;;;;;;5095786;28;19923;-82
2021/10/27 01:07:46;;;;;;;;;;;;;;;;;;5095230;28;19912;-82
2021/10/27 01:10:11;;;;;;;;;;;;;;;;;;5094230;28;19912;-83
2021/10/27 01:12:37;;;;;;;;;;;;;;;;;;5094404;28;19916;-82
2021/10/27 01:15:02;;;;;;;;;;;;;;;;;;5096860;28;19927;-82
2021/10/27 01:17:27;;;;;;;;;;;;;;;;;;5100458;28;19924;-83
2021/10/27 01:19:54;;;;;;;;;;;;;;;;;;5108454;28;19919;-82
2021/10/27 01:22:24;;;;;;;;;;;;;;;;;;5105980;28;19923;-82
2021/10/27 01:24:50;;;;;;;;;;;;;;;;;;5102608;28;20004;-82
2021/10/27 01:27:15;;;;;;;;;;;;;;;;;;5099208;28;19920;-82
2021/10/27 01:29:41;;;;;;;;;;;;;;;;;;5099170;28;19922;-82
2021/10/27 01:32:07;;;;;;;;;;;;;;;;;;5098952;28;19926;-83
2021/10/27 01:34:33;;;;;;;;;;;;;;;;;;5097903;28;19916;-82
2021/10/27 01:36:58;;;;;;;;;;;;;;;;;;5098785;28;19912;-83
2021/10/27 01:39:24;;;;;;;;;;;;;;;;;;5098788;28;19965;-82
2021/10/27 01:41:50;;;;;;;;;;;;;;;;;;5098999;28;19928;-82
2021/10/27 01:44:15;;;;;;;;;;;;;;;;;;5099241;28;19990;-82
2021/10/27 01:46:40;;;;;;;;;;;;;;;;;;5098608;28;19998;-82
2021/10/27 01:49:07;;;;;;;;;;;;;;;;;;5098290;28;19912;-83
2021/10/27 01:51:33;;;;;;;;;;;;;;;;;;5097586;28;19908;-82
2021/10/27 01:53:58;;;;;;;;;;;;;;;;;;5098350;28;20405;-83
2021/10/27 01:56:24;;;;;;;;;;;;;;;;;;5097500;28;19938;-83
2021/10/27 01:58:49;;;;;;;;;;;;;;;;;;5097369;28;19912;-82
2021/10/27 02:01:15;;;;;;;;;;;;;;;;;;5097374;28;19912;-82
2021/10/27 02:03:40;;;;;;;;;;;;;;;;;;5098228;28;19912;-82
2021/10/27 02:06:06;;;;;;;;;;;;;;;;;;5098451;28;19916;-81
2021/10/27 02:08:32;;;;;;;;;;;;;;;;;;5099118;28;19912;-82
2021/10/27 02:10:57;;;;;;;;;;;;;;;;;;5098375;28;19985;-83
2021/10/27 02:13:22;;;;;;;;;;;;;;;;;;5097382;28;19944;-82
2021/10/27 02:15:48;;;;;;;;;;;;;;;;;;5098436;28;20399;-82
2021/10/27 02:18:13;;;;;;;;;;;;;;;;;;5098295;28;20337;-82
2021/10/27 02:20:38;;;;;;;;;;;;;;;;;;5097314;28;19959;-83
2021/10/27 02:23:04;;;;;;;;;;;;;;;;;;5097366;28;19969;-82
2021/10/27 02:25:29;;;;;;;;;;;;;;;;;;5097226;28;19923;-82
2021/10/27 02:27:54;;;;;;;;;;;;;;;;;;5098598;28;19912;-83
2021/10/27 02:30:19;;;;;;;;;;;;;;;;;;5098326;28;19912;-83
2021/10/27 02:32:45;;;;;;;;;;;;;;;;;;5098485;28;19912;-83
2021/10/27 02:35:10;;;;;;;;;;;;;;;;;;5097170;28;19916;-82
2021/10/27 02:37:35;;;;;;;;;;;;;;;;;;5097186;28;20303;-82
2021/10/27 02:40:01;;;;;;;;;;;;;;;;;;5098789;28;19916;-83
2021/10/27 02:42:26;;;;;;;;;;;;;;;;;;5097084;28;19986;-81
2021/10/27 02:44:51;;;;;;;;;;;;;;;;;;5097050;28;19916;-82
2021/10/27 02:47:16;;;;;;;;;;;;;;;;;;5097783;28;19916;-82
2021/10/27 02:49:42;;;;;;;;;;;;;;;;;;5104028;28;19920;-82
2021/10/27 02:52:07;;;;;;;;;;;;;;;;;;5096712;28;20019;-82
2021/10/27 02:54:32;;;;;;;;;;;;;;;;;;5097523;28;19964;-83
2021/10/27 02:56:57;;;;;;;;;;;;;;;;;;5096621;28;19912;-82
2021/10/27 02:59:23;;;;;;;;;;;;;;;;;;5097500;28;19926;-82
2021/10/27 03:01:48;;;;;;;;;;;;;;;;;;5097584;28;19912;-81
2021/10/27 03:04:13;;;;;;;;;;;;;;;;;;5097629;28;20342;-83
2021/10/27 03:06:39;;;;;;;;;;;;;;;;;;5097168;28;19959;-82
2021/10/27 03:09:05;;;;;;;;;;;;;;;;;;5097342;28;19941;-82
2021/10/27 03:11:30;;;;;;;;;;;;;;;;;;5096116;28;20407;-82
2021/10/27 03:13:55;;;;;;;;;;;;;;;;;;5097123;28;20007;-82
2021/10/27 03:16:20;;;;;;;;;;;;;;;;;;5096814;28;19911;-83
2021/10/27 03:18:46;;;;;;;;;;;;;;;;;;5096839;28;19912;-83
2021/10/27 03:21:11;;;;;;;;;;;;;;;;;;5097696;28;20326;-83
2021/10/27 03:23:36;;;;;;;;;;;;;;;;;;5096062;28;19916;-83
2021/10/27 03:26:01;;;;;;;;;;;;;;;;;;5099320;28;19923;-82
2021/10/27 03:28:27;;;;;;;;;;;;;;;;;;5099068;28;19943;-83
2021/10/27 03:30:52;;;;;;;;;;;;;;;;;;5097981;28;19912;-84
2021/10/27 03:33:17;;;;;;;;;;;;;;;;;;5095433;28;20376;-82
2021/10/27 03:35:43;;;;;;;;;;;;;;;;;;5096564;28;19916;-83
2021/10/27 03:38:08;;;;;;;;;;;;;;;;;;5095531;28;19942;-81
2021/10/27 03:40:33;;;;;;;;;;;;;;;;;;5096444;28;19966;-82
2021/10/27 03:42:58;;;;;;;;;;;;;;;;;;5095482;28;19920;-82
2021/10/27 03:45:24;;;;;;;;;;;;;;;;;;5096335;28;20314;-82
2021/10/27 03:47:49;;;;;;;;;;;;;;;;;;5096580;28;20397;-83
2021/10/27 03:50:15;;;;;;;;;;;;;;;;;;5095531;28;20357;-83
2021/10/27 03:52:41;;;;;;;;;;;;;;;;;;5096291;28;20350;-82
2021/10/27 03:55:07;;;;;;;;;;;;;;;;;;5096015;28;19958;-83
2021/10/27 03:57:32;;;;;;;;;;;;;;;;;;5095894;28;19951;-83
2021/10/27 03:59:58;;;;;;;;;;;;;;;;;;5094997;28;20003;-83
2021/10/27 04:02:24;;;;;;;;;;;;;;;;;;5096232;28;19965;-82
2021/10/27 04:04:49;;;;;;;;;;;;;;;;;;5095918;28;19916;-82
2021/10/27 04:07:14;;;;;;;;;;;;;;;;;;5095926;28;19912;-83
2021/10/27 04:09:39;;;;;;;;;;;;;;;;;;5094951;28;19912;-83
2021/10/27 04:12:05;;;;;;;;;;;;;;;;;;5094846;28;19939;-83
2021/10/27 04:14:30;;;;;;;;;;;;;;;;;;5095631;28;19916;-83
2021/10/27 04:16:55;;;;;;;;;;;;;;;;;;5094952;28;20342;-83
2021/10/27 04:19:20;;;;;;;;;;;;;;;;;;5094749;28;20010;-83
2021/10/27 04:21:46;;;;;;;;;;;;;;;;;;5095715;28;19912;-83
2021/10/27 04:24:12;;;;;;;;;;;;;;;;;;5094762;28;19919;-83
2021/10/27 04:26:37;;;;;;;;;;;;;;;;;;5095697;28;19924;-83
2021/10/27 04:29:02;;;;;;;;;;;;;;;;;;5095886;28;19981;-83
2021/10/27 04:31:28;;;;;;;;;;;;;;;;;;5095433;28;19930;-83
2021/10/27 04:33:53;;;;;;;;;;;;;;;;;;5095428;28;19926;-82
2021/10/27 04:36:19;;;;;;;;;;;;;;;;;;5095950;28;19939;-83
2021/10/27 04:38:44;;;;;;;;;;;;;;;;;;5096365;28;20003;-83
2021/10/27 04:41:10;;;;;;;;;;;;;;;;;;5118130;28;19935;-83
2021/10/27 04:43:35;;;;;;;;;;;;;;;;;;5119217;28;19987;-83
2021/10/27 04:46:00;;;;;;;;;;;;;;;;;;5111968;28;19970;-83
2021/10/27 04:48:25;;;;;;;;;;;;;;;;;;5097155;28;20013;-82
2021/10/27 04:50:51;;;;;;;;;;;;;;;;;;5096219;28;19920;-83
2021/10/27 04:53:18;;;;;;;;;;;;;;;;;;5095946;28;19912;-83
2021/10/27 04:55:43;;;;;;;;;;;;;;;;;;5095659;28;19920;-83
2021/10/27 04:58:09;;;;;;;;;;;;;;;;;;5097988;28;19920;-82
2021/10/27 05:00:34;;;;;;;;;;;;;;;;;;5098708;28;19912;-83
2021/10/27 05:02:59;;;;;;;;;;;;;;;;;;5101472;28;19997;-81
2021/10/27 05:05:27;;;;;;;;;;;;;;;;;;5100373;28;19955;-82
2021/10/27 05:07:53;;;;;;;;;;;;;;;;;;5101614;28;19965;-83
2021/10/27 05:10:18;;;;;;;;;;;;;;;;;;5100326;28;19912;-83
2021/10/27 05:12:44;;;;;;;;;;;;;;;;;;5101589;28;19919;-83
2021/10/27 05:15:09;;;;;;;;;;;;;;;;;;5102913;28;19916;-82
2021/10/27 05:17:34;;;;;;;;;;;;;;;;;;5101344;28;19912;-84
2021/10/27 05:20:00;;;;;;;;;;;;;;;;;;5099288;28;19949;-83
2021/10/27 05:22:26;;;;;;;;;;;;;;;;;;5099133;28;19912;-83
2021/10/27 05:24:51;;;;;;;;;;;;;;;;;;5101298;28;19912;-84
2021/10/27 05:27:17;;;;;;;;;;;;;;;;;;5100589;28;19934;-83
2021/10/27 05:29:42;;;;;;;;;;;;;;;;;;5099654;28;19923;-83
2021/10/27 05:32:08;;;;;;;;;;;;;;;;;;5098887;28;19916;-83
2021/10/27 05:34:34;;;;;;;;;;;;;;;;;;5097740;28;20279;-83
2021/10/27 05:36:59;;;;;;;;;;;;;;;;;;5099574;28;20003;-82
2021/10/27 05:39:25;;;;;;;;;;;;;;;;;;5100157;28;19932;-83
2021/10/27 05:41:50;;;;;;;;;;;;;;;;;;5100211;28;19912;-84
2021/10/27 05:44:19;;;;;;;;;;;;;;;;;;5100799;28;19940;-81
2021/10/27 05:46:47;;;;;;;;;;;;;;;;;;5100943;28;19912;-83
2021/10/27 05:52:03;;;;;;;;;;;;;;;;;;5103506;28;19927;-84
2021/10/27 05:57:12;;;;;;;;;;;;;;;;;;5101390;28;19964;-83
2021/10/27 05:59:37;;;;;;;;;;;;;;;;;;5102842;28;19971;-84
2021/10/27 06:02:03;;;;;;;;;;;;;;;;;;5100367;28;19920;-84
2021/10/27 06:04:28;;;;;;;;;;;;;;;;;;5098524;28;19924;-82
2021/10/27 06:06:53;;;;;;;;;;;;;;;;;;5099553;28;19912;-83
2021/10/27 06:09:18;;;;;;;;;;;;;;;;;;5099562;28;19955;-84
2021/10/27 06:11:44;;;;;;;;;;;;;;;;;;5097882;28;19912;-83
2021/10/27 06:14:10;;;;;;;;;;;;;;;;;;5098148;28;19973;-83
2021/10/27 06:16:35;;;;;;;;;;;;;;;;;;5098929;28;19912;-84
2021/10/27 06:19:00;;;;;;;;;;;;;;;;;;5099069;28;19916;-83
2021/10/27 06:21:26;;;;;;;;;;;;;;;;;;5099223;28;19956;-83
2021/10/27 06:23:51;;;;;;;;;;;;;;;;;;5099809;28;19912;-83
2021/10/27 06:26:18;;;;;;;;;;;;;;;;;;5098319;28;19916;-83
2021/10/27 06:29:06;;;;;;;;;;;;;;;;;;5099017;28;19983;-84
2021/10/27 06:31:38;;;;;;;;;;;;;;;;;;5101289;28;20326;-83
2021/10/27 06:39:24;;;;;;;;;;;;;;;;;;5104985;28;20320;-83
2021/10/27 06:47:17;;;;;;;;;;;;;;;;;;5098268;28;20023;-83
2021/10/27 06:49:43;;;;;;;;;;;;;;;;;;5097151;28;19959;-84
2021/10/27 06:52:08;;;;;;;;;;;;;;;;;;5097376;28;19980;-83
2021/10/27 06:54:33;;;;;;;;;;;;;;;;;;5097637;28;19927;-82
2021/10/27 06:56:59;;;;;;;;;;;;;;;;;;5097679;28;19916;-84
2021/10/27 06:59:39;;;;;;;;;;;;;;;;;;5097602;28;20413;-83
2021/10/27 07:05:00;;;;;;;;;;;;;;;;;;5097918;28;19923;-82
2021/10/27 07:14:58;;;;;;;;;;;;;;;;;;5096866;28;19995;-83
2021/10/27 07:15:39;;;;;;;;;;;;;;;;;;5097236;28;19927;-83
2021/10/27 07:18:05;;;;;;;;;;;;;;;;;;5095977;28;19912;-82
2021/10/27 07:20:30;;;;;;;;;;;;;;;;;;5096641;28;19959;-83
2021/10/27 07:23:00;;;;;;;;;;;;;;;;;;5096725;28;20007;-83
2021/10/27 07:25:26;;;;;;;;;;;;;;;;;;5095720;28;20230;-83
2021/10/27 07:27:51;;;;;;;;;;;;;;;;;;5096610;28;19965;-82
2021/10/27 07:30:17;;;;;;;;;;;;;;;;;;5095651;28;19938;-84
2021/10/27 07:32:43;;;;;;;;;;;;;;;;;;5095862;28;19919;-83
2021/10/27 07:43:03;;;;;;;;;;;;;;;;;;5097141;28;19908;-83
2021/10/27 07:45:31;;;;;;;;;;;;;;;;;;5096265;28;19947;-82
2021/10/27 07:47:56;;;;;;;;;;;;;;;;;;5096656;28;20002;-83
2021/10/27 07:50:22;;;;;;;;;;;;;;;;;;5096390;28;19970;-83
2021/10/27 07:52:48;;;;;;;;;;;;;;;;;;5095366;28;19916;-83
2021/10/27 07:55:14;;;;;;;;;;;;;;;;;;5096022;28;20406;-82
2021/10/27 07:57:39;;;;;;;;;;;;;;;;;;5096484;28;19923;-82
2021/10/27 08:00:05;;;;;;;;;;;;;;;;;;5096393;28;20334;-83
2021/10/27 08:02:30;;;;;;;;;;;;;;;;;;5096578;28;19935;-83
2021/10/27 08:04:56;;;;;;;;;;;;;;;;;;5096518;28;20326;-83
2021/10/27 08:07:21;;;;;;;;;;;;;;;;;;5096754;28;20262;-83
2021/10/27 08:09:46;;;;;;;;;;;;;;;;;;5096458;28;19920;-82
2021/10/27 08:12:11;;;;;;;;;;;;;;;;;;5096382;28;19919;-82
2021/10/27 08:14:37;;;;;;;;;;;;;;;;;;5096825;28;19927;-83
2021/10/27 08:17:03;;;;;;;;;;;;;;;;;;5096564;28;19919;-83
2021/10/27 08:19:28;;;;;;;;;;;;;;;;;;5096335;28;19916;-83
2021/10/27 08:21:58;;;;;;;;;;;;;;;;;;5095579;28;19912;-83
2021/10/27 08:24:24;;;;;;;;;;;;;;;;;;5096597;28;19912;-83
2021/10/27 08:26:54;;;;;;;;;;;;;;;;;;5095587;28;19912;-83
2021/10/27 08:29:25;;;;;;;;;;;;;;;;;;5096557;28;19923;-83
2021/10/27 08:31:56;;;;;;;;;;;;;;;;;;5095531;28;20002;-84
2021/10/27 08:34:33;;;;;;;;;;;;;;;;;;5095851;28;20304;-83
2021/10/27 08:36:59;;;;;;;;;;;;;;;;;;5098751;28;19920;-84
2021/10/27 08:39:24;;;;;;;;;;;;;;;;;;5099743;28;19938;-83
2021/10/27 08:41:49;;;;;;;;;;;;;;;;;;5102756;28;20317;-84
2021/10/27 08:44:14;;;;;;;;;;;;;;;;;;5102067;28;19923;-83
2021/10/27 08:46:40;;;;;;;;;;;;;;;;;;5105157;28;19923;-85
2021/10/27 08:49:06;;;;;;;;;;;;;;;;;;5118016;28;20337;-84
2021/10/27 08:51:31;;;;;;;;;;;;;;;;;;5118296;28;19912;-85
2021/10/27 08:53:57;;;;;;;;;;;;;;;;;;5100460;28;20081;-84
2021/10/27 08:56:24;;;;;;;;;;;;;;;;;;5095362;28;19969;-84
2021/10/27 08:58:55;;;;;;;;;;;;;;;;;;5096057;28;19911;-84
2021/10/27 09:01:38;;;;;;;;;;;;;;;;;;5094832;28;20413;-83
2021/10/27 09:07:00;;;;;;;;;;;;;;;;;;5095924;28;19931;-83
2021/10/27 09:09:48;;;;;;;;;;;;;;;;;;5094994;28;19912;-83
2021/10/27 09:35:38;;;;;;;;;;;;;;;;;;5095564;28;19989;-83
2021/10/27 09:40:56;;;;;;;;;;;;;;;;;;5095854;28;20207;-82
2021/10/27 09:43:35;;;;;;;;;;;;;;;;;;5097657;28;19912;-82
2021/10/27 10:05:02;;;;;;;;;;;;;;;;;;5099257;28;19923;-84
2021/10/27 10:07:28;;;;;;;;;;;;;;;;;;5098453;28;19912;-83
2021/10/27 10:09:54;;;;;;;;;;;;;;;;;;5098942;28;20381;-84
2021/10/27 10:12:19;;;;;;;;;;;;;;;;;;5098979;28;19912;-83
2021/10/27 10:14:49;;;;;;;;;;;;;;;;;;5098785;28;20223;-84
2021/10/27 10:17:14;;;;;;;;;;;;;;;;;;5098849;28;19915;-84
2021/10/27 10:19:41;;;;;;;;;;;;;;;;;;5097310;28;20313;-83
2021/10/27 10:22:24;;;;;;;;;;;;;;;;;;5098699;28;19912;-84
2021/10/27 10:24:50;;;;;;;;;;;;;;;;;;5098154;28;19965;-84
2021/10/27 10:27:34;;;;;;;;;;;;;;;;;;5103343;28;19912;-83
2021/10/27 10:30:02;;;;;;;;;;;;;;;;;;5100599;28;20007;-84
2021/10/27 10:32:30;;;;;;;;;;;;;;;;;;5098136;28;19988;-84
2021/10/27 10:34:58;;;;;;;;;;;;;;;;;;5098214;28;19916;-84
2021/10/27 10:55:25;;;;;;;;;;;;;;;;;;5098798;28;19943;-85
2021/10/27 11:00:21;;;;;;;;;;;;;;;;;;5097683;28;20029;-84
2021/10/27 11:40:20;;;;;;;;;;;;;;;;;;5097225;28;19916;-85
2021/10/27 11:42:57;;;;;;;;;;;;;;;;;;5096018;28;19965;-83
2021/10/27 11:45:38;;;;;;;;;;;;;;;;;;5095772;28;19912;-85
2021/10/27 11:48:17;;;;;;;;;;;;;;;;;;5096625;28;19915;-86
2021/10/27 11:50:43;;;;;;;;;;;;;;;;;;5095593;28;19956;-86
2021/10/27 11:53:28;;;;;;;;;;;;;;;;;;5096482;28;19977;-84
2021/10/27 11:55:55;;;;;;;;;;;;;;;;;;5095987;28;21232;-85
2021/10/27 11:58:23;;;;;;;;;;;;;;;;;;5095470;28;20007;-85
2021/10/27 12:00:58;;;;;;;;;;;;;;;;;;5096378;28;19927;-85
2021/10/27 12:03:33;;;;;;;;;;;;;;;;;;5095713;28;19944;-87
2021/10/27 12:06:12;;;;;;;;;;;;;;;;;;5096833;28;20011;-85
2021/10/27 12:17:01;;;;;;;;;;;;;;;;;;5096748;28;20262;-85
2021/10/27 12:19:29;;;;;;;;;;;;;;;;;;5095801;28;20219;-85
2021/10/27 12:21:57;;;;;;;;;;;;;;;;;;5096501;28;20247;-85
2021/10/27 12:24:23;;;;;;;;;;;;;;;;;;5096497;28;20003;-86
2021/10/27 12:27:07;;;;;;;;;;;;;;;;;;5095323;28;19927;-85
2021/10/27 12:29:34;;;;;;;;;;;;;;;;;;5095272;28;20356;-85
2021/10/27 12:32:04;;;;;;;;;;;;;;;;;;5096981;28;19923;-85
2021/10/27 12:34:30;;;;;;;;;;;;;;;;;;5098011;28;19916;-84
2021/10/27 12:36:58;;;;;;;;;;;;;;;;;;5097079;28;19938;-86
2021/10/27 12:39:34;;;;;;;;;;;;;;;;;;5096384;28;19911;-86
2021/10/27 12:42:01;;;;;;;;;;;;;;;;;;5095726;28;19920;-85
2021/10/27 12:44:27;;;;;;;;;;;;;;;;;;5096564;28;19947;-84
2021/10/27 12:47:12;;;;;;;;;;;;;;;;;;5096636;28;19923;-85
2021/10/27 12:49:38;;;;;;;;;;;;;;;;;;5097899;28;19942;-84
2021/10/27 12:52:25;;;;;;;;;;;;;;;;;;5103980;28;19901;-82
2021/10/27 12:55:09;;;;;;;;;;;;;;;;;;5114629;28;19923;-83
2021/10/27 12:57:45;;;;;;;;;;;;;;;;;;5114166;28;19912;-83
2021/10/27 13:00:14;;;;;;;;;;;;;;;;;;5097926;28;19920;-82
2021/10/27 13:02:44;;;;;;;;;;;;;;;;;;5097861;28;19919;-82
2021/10/27 13:05:24;;;;;;;;;;;;;;;;;;5096889;28;20345;-81
2021/10/27 13:07:56;;;;;;;;;;;;;;;;;;5095509;28;19920;-83
2021/10/27 13:10:37;;;;;;;;;;;;;;;;;;5095093;28;19912;-84
2021/10/27 13:13:17;;;;;;;;;;;;;;;;;;5096221;28;19927;-84
2021/10/27 13:16:07;;;;;;;;;;;;;;;;;;5095812;28;20231;-84
2021/10/27 13:18:47;;;;;;;;;;;;;;;;;;5095407;28;20300;-85
2021/10/27 13:31:35;;;;;;;;;;;;;;;;;;5100771;28;19923;-88
2021/10/27 13:34:00;;;;;;;;;;;;;;;;;;5105126;28;19983;-86
2021/10/27 13:36:25;;;;;;;;;;;;;;;;;;5106353;28;19912;-88
2021/10/27 13:38:52;;;;;;;;;;;;;;;;;;5108910;28;19955;-83
2021/10/27 13:41:18;;;;;;;;;;;;;;;;;;5110355;28;19920;-86
2021/10/27 13:43:55;;;;;;;;;;;;;;;;;;5111873;28;19912;-85
2021/10/27 14:07:56;;;;;;;;;;;;;;;;;;5100488;28;19962;-85
2021/10/27 14:13:08;;;;;;;;;;;;;;;;;;5099743;28;19955;-86
2021/10/27 14:15:51;;;;;;;;;;;;;;;;;;5099832;28;20007;-86
2021/10/27 14:18:31;;;;;;;;;;;;;;;;;;5099232;28;19959;-86
2021/10/27 14:22:19;;;;;;;;;;;;;;;;;;5099153;28;19912;-85
2021/10/27 14:40:20;;;;;;;;;;;;;;;;;;5099138;28;19923;-86
2021/10/27 14:59:14;;;;;;;;;;;;;;;;;;5099808;28;19986;-83
2021/10/27 15:20:45;;;;;;;;;;;;;;;;;;5097462;28;19989;-84
2021/10/27 15:41:36;;;;;;;;;;;;;;;;;;5098425;28;19923;-86
2021/10/27 15:44:24;;;;;;;;;;;;;;;;;;5099800;28;19912;-83
2021/10/27 15:52:22;;;;;;;;;;;;;;;;;;5097456;28;19923;-86
2021/10/27 15:54:47;;;;;;;;;;;;;;;;;;5100088;28;19923;-84
2021/10/27 15:57:13;;;;;;;;;;;;;;;;;;5099364;28;19916;-84
2021/10/27 15:59:40;;;;;;;;;;;;;;;;;;5100960;28;19937;-86
2021/10/27 16:02:05;;;;;;;;;;;;;;;;;;5100157;28;20346;-88
2021/10/27 16:04:31;;;;;;;;;;;;;;;;;;5098810;28;19912;-87
2021/10/27 16:06:57;;;;;;;;;;;;;;;;;;5099791;28;19912;-82
2021/10/27 16:09:42;;;;;;;;;;;;;;;;;;5099572;28;19920;-86
2021/10/27 16:12:08;;;;;;;;;;;;;;;;;;5100233;28;19923;-83
2021/10/27 16:14:33;;;;;;;;;;;;;;;;;;5098737;28;19916;-84
2021/10/27 16:16:59;;;;;;;;;;;;;;;;;;5099878;28;19927;-83
2021/10/27 16:19:24;;;;;;;;;;;;;;;;;;5100038;28;19991;-85
2021/10/27 16:21:49;;;;;;;;;;;;;;;;;;5099279;28;20004;-83
2021/10/27 16:24:15;;;;;;;;;;;;;;;;;;5098724;28;19923;-87
2021/10/27 16:26:41;;;;;;;;;;;;;;;;;;5098100;28;19973;-86
2021/10/27 16:29:06;;;;;;;;;;;;;;;;;;5096083;28;20002;-83
2021/10/27 16:31:31;;;;;;;;;;;;;;;;;;5098099;28;19913;-86
2021/10/27 16:33:58;;;;;;;;;;;;;;;;;;5097869;28;19912;-87
2021/10/27 16:36:23;;;;;;;;;;;;;;;;;;5098872;28;19919;-84
2021/10/27 16:38:49;;;;;;;;;;;;;;;;;;5103274;28;19916;-83
2021/10/27 16:41:14;;;;;;;;;;;;;;;;;;5106004;28;19915;-86
2021/10/27 16:43:41;;;;;;;;;;;;;;;;;;5101333;28;19923;-88
2021/10/27 16:46:06;;;;;;;;;;;;;;;;;;5098692;28;19942;-85
2021/10/27 16:48:32;;;;;;;;;;;;;;;;;;5098141;28;19912;-84
2021/10/27 16:50:57;;;;;;;;;;;;;;;;;;5097416;28;19976;-84
2021/10/27 16:53:26;;;;;;;;;;;;;;;;;;5098018;28;19942;-83
2021/10/27 16:55:51;;;;;;;;;;;;;;;;;;5103805;28;19923;-83
2021/10/27 16:58:17;;;;;;;;;;;;;;;;;;5115375;28;19939;-84
2021/10/27 17:00:42;;;;;;;;;;;;;;;;;;5123729;28;19961;-83
2021/10/27 17:03:07;;;;;;;;;;;;;;;;;;5123077;28;19919;-82
2021/10/27 17:05:33;;;;;;;;;;;;;;;;;;5117941;28;19921;-82
2021/10/27 17:07:58;;;;;;;;;;;;;;;;;;5113864;28;19951;-84
2021/10/27 17:10:24;;;;;;;;;;;;;;;;;;5115028;28;19923;-80
2021/10/27 17:12:49;;;;;;;;;;;;;;;;;;5116562;28;19927;-82
2021/10/27 17:15:15;;;;;;;;;;;;;;;;;;5114083;28;19916;-87
2021/10/27 17:17:41;;;;;;;;;;;;;;;;;;5111237;28;19938;-83
2021/10/27 17:20:07;;;;;;;;;;;;;;;;;;5108334;28;20249;-89
2021/10/27 17:22:37;;;;;;;;;;;;;;;;;;5103514;28;19912;-88
2021/10/27 17:25:03;;;;;;;;;;;;;;;;;;5103626;28;19923;-90
2021/10/27 17:27:29;;;;;;;;;;;;;;;;;;5105835;28;19959;-89
2021/10/27 17:29:54;;;;;;;;;;;;;;;;;;5103277;28;20018;-88
2021/10/27 17:32:19;;;;;;;;;;;;;;;;;;5102830;28;19912;-84
2021/10/27 17:34:45;;;;;;;;;;;;;;;;;;5107349;28;19916;-88
2021/10/27 17:37:12;;;;;;;;;;;;;;;;;;5103317;28;19912;-84
2021/10/27 17:39:38;;;;;;;;;;;;;;;;;;5113845;28;19912;-86
2021/10/27 17:42:04;;;;;;;;;;;;;;;;;;5108341;28;19991;-85
2021/10/27 17:44:29;;;;;;;;;;;;;;;;;;5107091;28;19923;-84
2021/10/27 17:47:02;;;;;;;;;;;;;;;;;;5103928;28;19967;-84
2021/10/27 17:49:49;;;;;;;;;;;;;;;;;;5103149;28;19924;-83
2021/10/27 17:59:56;;;;;;;;;;;;;;;;;;5102706;28;20277;-88
2021/10/27 18:02:23;;;;;;;;;;;;;;;;;;5101110;28;19919;-85
2021/10/27 18:04:48;;;;;;;;;;;;;;;;;;5104313;28;20373;-83
2021/10/27 18:07:16;;;;;;;;;;;;;;;;;;5112389;28;19912;-83
2021/10/27 18:09:42;;;;;;;;;;;;;;;;;;5107311;28;20011;-83
2021/10/27 18:12:07;;;;;;;;;;;;;;;;;;5106663;28;19912;-87
2021/10/27 18:14:32;;;;;;;;;;;;;;;;;;5101760;28;19924;-87
2021/10/27 18:17:00;;;;;;;;;;;;;;;;;;5103467;28;19912;-84
2021/10/27 18:19:34;;;;;;;;;;;;;;;;;;5104594;28;19919;-84
2021/10/27 18:22:22;;;;;;;;;;;;;;;;;;5103756;28;19915;-82
2021/10/27 18:40:53;;;;;;;;;;;;;;;;;;5103243;28;19920;-87
2021/10/27 18:43:25;;;;;;;;;;;;;;;;;;5100548;28;20341;-85
2021/10/27 18:45:52;;;;;;;;;;;;;;;;;;5099584;28;19920;-88
2021/10/27 18:48:18;;;;;;;;;;;;;;;;;;5102448;28;19995;-84
2021/10/27 18:56:34;;;;;;;;;;;;;;;;;;5100821;28;19923;-84
2021/10/27 19:11:48;;;;;;;;;;;;;;;;;;5099110;28;20023;-87
2021/10/27 19:17:09;;;;;;;;;;;;;;;;;;5082638;28;20249;-86
2021/10/27 19:19:34;;;;;;;;;;;;;;;;;;5096979;28;19912;-87
2021/10/27 19:22:00;;;;;;;;;;;;;;;;;;5096580;28;20025;-87
2021/10/27 19:24:39;;;;;;;;;;;;;;;;;;5102558;28;19912;-83
2021/10/27 19:27:09;;;;;;;;;;;;;;;;;;5098262;28;19974;-87
2021/10/27 19:29:39;;;;;;;;;;;;;;;;;;5097678;28;20310;-86
2021/10/27 19:34:50;;;;;;;;;;;;;;;;;;5098895;28;20022;-89
2021/10/27 20:07:24;;;;;;;;;;;;;;;;;;5098735;28;19912;-87
2021/10/27 20:13:00;;;;;;;;;;;;;;;;;;5099049;28;19919;-86
2021/10/27 20:50:36;;;;;;;;;;;;;;;;;;5099056;28;19974;-86
2021/10/27 20:53:19;;;;;;;;;;;;;;;;;;5097626;28;20007;-86
2021/10/27 20:55:46;;;;;;;;;;;;;;;;;;5098742;28;19924;-85
2021/10/27 21:12:44;;;;;;;;;;;;;;;;;;5089742;28;20257;-83
2021/10/27 21:14:42;;;;;;;;;;;;;;;;;;5093387;28;19917;-83
2021/10/27 21:17:07;;;;;;;;;;;;;;;;;;5098192;28;20377;-85
2021/10/27 21:19:33;;;;;;;;;;;;;;;;;;5098827;28;20028;-85
2021/10/27 21:21:58;;;;;;;;;;;;;;;;;;5097148;28;19920;-88
2021/10/27 21:24:23;;;;;;;;;;;;;;;;;;5097763;28;19912;-88
2021/10/27 21:26:50;;;;;;;;;;;;;;;;;;5097814;28;20007;-86
2021/10/27 21:29:22;;;;;;;;;;;;;;;;;;5097314;28;19912;-84
2021/10/27 21:42:54;;;;;;;;;;;;;;;;;;5105463;28;19920;-85
2021/10/27 21:45:20;;;;;;;;;;;;;;;;;;5108735;28;19912;-81
2021/10/27 21:47:45;;;;;;;;;;;;;;;;;;5108701;28;19937;-84
2021/10/27 21:50:18;;;;;;;;;;;;;;;;;;5108921;28;19990;-82
2021/10/27 21:52:47;;;;;;;;;;;;;;;;;;5110736;28;19912;-83
2021/10/27 21:55:23;;;;;;;;;;;;;;;;;;5109029;28;19916;-83
2021/10/27 21:57:48;;;;;;;;;;;;;;;;;;5109616;28;20018;-84
2021/10/27 22:00:14;;;;;;;;;;;;;;;;;;5110256;28;19912;-82
2021/10/27 22:02:40;;;;;;;;;;;;;;;;;;5109462;28;20392;-82
2021/10/27 22:05:06;;;;;;;;;;;;;;;;;;5109934;28;19912;-83
2021/10/27 22:07:32;;;;;;;;;;;;;;;;;;5108802;28;20009;-83
2021/10/27 22:09:57;;;;;;;;;;;;;;;;;;5109420;28;20366;-82
2021/10/27 22:12:22;;;;;;;;;;;;;;;;;;5108324;28;19920;-82
2021/10/27 22:14:48;;;;;;;;;;;;;;;;;;5108580;28;19994;-83
2021/10/27 22:17:14;;;;;;;;;;;;;;;;;;5108219;28;19927;-82
2021/10/27 22:19:40;;;;;;;;;;;;;;;;;;5107113;28;19916;-85
2021/10/27 22:22:05;;;;;;;;;;;;;;;;;;5102727;28;20060;-84
2021/10/27 22:24:31;;;;;;;;;;;;;;;;;;5101428;28;19912;-84
2021/10/27 22:26:56;;;;;;;;;;;;;;;;;;5100166;28;19912;-88
2021/10/27 22:29:22;;;;;;;;;;;;;;;;;;5106860;28;20250;-83
2021/10/27 22:31:47;;;;;;;;;;;;;;;;;;5107723;28;20272;-83
2021/10/27 22:34:13;;;;;;;;;;;;;;;;;;5107687;28;19930;-80
2021/10/27 22:36:39;;;;;;;;;;;;;;;;;;5110111;28;19916;-82
2021/10/27 22:39:05;;;;;;;;;;;;;;;;;;5110202;28;19923;-84
2021/10/27 22:41:30;;;;;;;;;;;;;;;;;;5108467;28;20340;-83
2021/10/27 22:43:55;;;;;;;;;;;;;;;;;;5109915;28;20261;-85
2021/10/27 22:46:21;;;;;;;;;;;;;;;;;;5108435;28;19924;-83
2021/10/27 22:48:46;;;;;;;;;;;;;;;;;;5108177;28;19912;-87
2021/10/27 22:51:11;;;;;;;;;;;;;;;;;;5107826;28;20405;-83
2021/10/27 22:53:37;;;;;;;;;;;;;;;;;;5108530;28;19919;-83
2021/10/27 22:56:03;;;;;;;;;;;;;;;;;;5108160;28;19916;-83
2021/10/27 22:58:35;;;;;;;;;;;;;;;;;;5108215;28;19912;-83
2021/10/27 23:01:14;;;;;;;;;;;;;;;;;;5108340;28;19912;-85
2021/10/27 23:06:08;;;;;;;;;;;;;;;;;;5107585;28;19924;-82
2021/10/27 23:08:49;;;;;;;;;;;;;;;;;;5107589;28;19958;-82
2021/10/27 23:11:26;;;;;;;;;;;;;;;;;;5106528;28;19912;-85
2021/10/27 23:41:25;;;;;;;;;;;;;;;;;;5115581;28;19931;-89
2021/10/27 23:43:51;;;;;;;;;;;;;;;;;;5115064;28;19912;-84
2021/10/27 23:46:17;;;;;;;;;;;;;;;;;;5114624;28;19912;-88
2021/10/27 23:48:42;;;;;;;;;;;;;;;;;;5102547;28;19912;-82
2021/10/27 23:51:21;;;;;;;;;;;;;;;;;;5104372;28;19970;-83
2021/10/27 23:53:54;;;;;;;;;;;;;;;;;;5103496;28;19954;-82
